Fukuma, Japan

8:10 AM JST on June 25, 2017 (GMT +0900)
古賀市 | | Change Station

Elev 0 ft 33.74 °N, 130.47 °E | Updated 11 seconds ago

Overcast
Overcast
73.6 °F
Feels Like 73.6 °F
N
0.6
Wind Variable Wind from SW
Gusts 2.5 mph

Today
High -- | Low -- °F
--% Chance of Precip.
Yesterday
High -- | Low -- °F
Precip. -- in
Pressure 29.53 in
Visibility 1.9 miles
Clouds Few 200 ft
Mostly Cloudy 400 ft
Mostly Cloudy 1000 ft
Dew Point 74 °F
Humidity 100%
Rainfall 0.13 in
Snow Depth Not available.
5:08 AM 7:32 PM
New Moon, 1% visible
METAR RJFF 242300Z 34007KT 3000 -SHRA BR FEW002 BKN004 BKN010 23/21 Q1000 RMK 1ST002 5ST004 6ST010 A2954
Pressure 29.53 in
Visibility 1.9 miles
Clouds Few 200 ft
Mostly Cloudy 400 ft
Mostly Cloudy 1000 ft
Dew Point 74 °F
Humidity 100%
Rainfall 0.13 in
Snow Depth Not available.
5:08 AM 7:32 PM
New Moon, 1% visible
METAR RJFF 242300Z 34007KT 3000 -SHRA BR FEW002 BKN004 BKN010 23/21 Q1000 RMK 1ST002 5ST004 6ST010 A2954

Get Severe Weather Alerts

Thanks for signing up!

Be on the lookout for a verification email in your inbox.

You'll start receiving the daily forecast at 6 AM.

×

10-Day Weather Forecast

No radar image for this location.
×

Almanac

Astronomy

Jun. 25, 2017 Rise Set
Actual Time
Civil Twilight
Nautical Twilight
Astronomical Twilight
Moon
Length of Visible Light
Length of Day
Tomorrow will be .
, % of the Moon is Illuminated

Today's Extremes

Country Highs Country Lows

Community

WunderPhotos

Category 6

Welcome to Category 6. This is the collective home for Weather Underground's featured writeups by Dr. Jeff Masters (right), Bob Henson (left), Chris Burt, and other regular contributors.

Nearby

Air Quality

  Air Quality AQ Index Pollutant
Not available.

Snow Depth

Station Depth Elevation

Earthquake Activity

City Distance Mag. Time & Date
Minimum magnitude displayed is 2.5.

Coastal Water Temperatures

Place Temperature

Stations

Nearby Weather Stations

Station Location Temp. Windchill Dew Point Humidity Wind Precip. Elev Updated Type